VAM | Vabird-VBD

Virtual Vabird! Aerolínea Virtual de habla hispana, desde 2011




 INFORMACIÓN METAR y TAF
METAR FOR LESU
ADDS - METARS form results

(0032 UTC 22 June 2021)
Data provider http://aviationweather.gov/metar/data/
 
Forecast for: LESU (LA SEU , ES)
Text: TAF LESU 211400Z 2115/2215 VRB03KT 9999 FEW040 TX25/2212Z TN10/2206Z
Forecast period: 1500 UTC 21 June 2021 to 1500 UTC 22 June 2021
Forecast type: FROM: standard forecast or significant change
Winds: variable direction winds at 3 MPH (3 knots; 1.5 m/s)
Visibility: 6 or more miles (10+ km)
Ceiling: at least 12,000 feet AGL
Clouds: few clouds at 4000 feet AGL
Weather: no significant weather forecast for this period
Text: TEMPO 2115/2117 20010KT
Forecast period: 1500 to 1700 UTC 21 June 2021
Forecast type: TEMPORARY: The following changes expected for less than half the time period
Winds: from the SSW (200 degrees) at 12 MPH (10 knots; 5.1 m/s)
Visibility: missing
Ceiling: unknown
Clouds: missing
Weather: no significant weather forecast for this period

 MAPA DE AEROPUERTO

 INFORMACIÓN DE PISTA